createdAt,value
2019-03-27T00:01:12.147Z,101409.19
2019-03-27T00:03:40.299Z,101397.75
2019-03-27T00:06:10.097Z,101402.72
2019-03-27T00:08:38.159Z,101401.00
2019-03-27T00:11:05.896Z,101401.00
2019-03-27T00:13:33.740Z,101400.52
2019-03-27T00:16:01.762Z,101395.70
2019-03-27T00:18:29.410Z,101401.50
2019-03-27T00:20:57.225Z,101394.97
2019-03-27T00:23:25.165Z,101391.44
2019-03-27T00:25:52.901Z,101394.54
2019-03-27T00:28:20.535Z,101394.54
2019-03-27T00:30:48.347Z,101389.78
2019-03-27T00:33:16.279Z,101389.78
2019-03-27T00:35:43.980Z,101388.94
2019-03-27T00:38:11.762Z,101397.72
2019-03-27T00:40:39.819Z,101388.45
2019-03-27T00:43:07.556Z,101394.28
2019-03-27T00:45:35.347Z,101388.20
2019-03-27T00:48:04.955Z,101391.78
2019-03-27T00:50:32.888Z,101391.09
2019-03-27T00:53:00.611Z,101391.09
2019-03-27T00:55:31.007Z,101391.55
2019-03-27T00:58:00.389Z,101391.55
2019-03-27T01:00:28.210Z,101387.75
2019-03-27T01:02:55.841Z,101387.75
2019-03-27T01:05:23.582Z,101395.39
2019-03-27T01:07:53.851Z,101395.39
2019-03-27T01:10:24.155Z,101390.28
2019-03-27T01:12:51.829Z,101392.58
2019-03-27T01:15:39.983Z,101392.58
2019-03-27T01:18:06.837Z,101384.54
2019-03-27T01:20:37.247Z,101384.54
2019-03-27T01:23:05.210Z,101392.73
2019-03-27T01:25:36.649Z,101392.07
2019-03-27T01:28:04.245Z,101392.07
2019-03-27T01:30:34.742Z,101393.45
2019-03-27T01:33:02.746Z,101388.92
2019-03-27T01:35:30.527Z,101388.92
2019-03-27T01:37:58.174Z,101390.52
2019-03-27T01:40:27.241Z,101391.05
2019-03-27T01:42:54.958Z,101391.05
2019-03-27T01:45:31.259Z,101394.56
2019-03-27T01:47:59.016Z,101403.05
2019-03-27T01:50:26.820Z,101400.53
2019-03-27T01:52:54.479Z,101400.53
2019-03-27T01:55:22.434Z,101397.94
2019-03-27T01:57:50.101Z,101406.44
2019-03-27T02:00:17.788Z,101406.44
2019-03-27T02:02:45.398Z,101394.72
2019-03-27T02:05:13.403Z,101394.72
2019-03-27T02:07:41.019Z,101395.23
2019-03-27T02:10:08.714Z,101399.33
2019-03-27T02:12:36.331Z,101396.77
2019-03-27T02:15:04.204Z,101401.97
2019-03-27T02:17:31.873Z,101398.84
2019-03-27T02:19:59.435Z,101396.13
2019-03-27T02:22:27.283Z,101396.13
2019-03-27T02:24:56.336Z,101399.95
2019-03-27T02:27:24.371Z,101399.95
2019-03-27T02:29:52.068Z,101403.00
2019-03-27T02:32:21.165Z,101403.00
2019-03-27T02:34:49.019Z,101398.20
2019-03-27T02:37:16.614Z,101398.33
2019-03-27T02:39:44.640Z,101398.33
2019-03-27T02:42:12.346Z,101394.67
2019-03-27T02:44:40.020Z,101391.16
2019-03-27T02:47:07.886Z,101393.84
2019-03-27T02:49:35.559Z,101393.08
2019-03-27T02:52:03.234Z,101393.08
2019-03-27T02:54:31.004Z,101396.77
2019-03-27T02:56:58.991Z,101387.91
2019-03-27T02:59:26.699Z,101385.52
2019-03-27T03:01:54.390Z,101385.52
2019-03-27T03:04:22.065Z,101397.27
2019-03-27T03:37:54.477Z,101403.88
2019-03-27T03:40:22.058Z,101403.27
2019-03-27T03:42:49.610Z,101398.91
2019-03-27T03:45:17.166Z,101398.91
2019-03-27T03:47:44.765Z,101409.12
2019-03-27T03:50:12.347Z,101409.12
2019-03-27T03:52:39.960Z,101414.38
2019-03-27T03:55:07.805Z,101415.46
2019-03-27T03:57:35.339Z,101408.67
2019-03-27T04:00:02.968Z,101403.67
2019-03-27T04:02:30.534Z,101403.67
2019-03-27T04:04:58.330Z,101410.88
2019-03-27T04:07:27.653Z,101410.88
2019-03-27T04:09:55.186Z,101406.31
2019-03-27T04:12:22.761Z,101407.52
2019-03-27T04:14:50.591Z,101407.52
2019-03-27T04:17:18.236Z,101413.60
2019-03-27T04:19:45.805Z,101421.48
2019-03-27T04:22:13.350Z,101419.76
2019-03-27T04:24:42.261Z,101419.00
2019-03-27T04:27:09.809Z,101415.64
2019-03-27T04:29:37.415Z,101415.64
2019-03-27T04:32:05.240Z,101424.19
2019-03-27T04:34:32.806Z,101418.19
2019-03-27T04:37:00.283Z,101422.75
2019-03-27T04:39:28.175Z,101425.50
2019-03-27T04:41:57.462Z,101427.22
2019-03-27T04:44:24.964Z,101427.22
2019-03-27T04:46:52.797Z,101432.06
2019-03-27T04:49:20.379Z,101436.38
2019-03-27T04:51:47.819Z,101432.82
2019-03-27T04:54:15.339Z,101442.46
2019-03-27T04:56:43.058Z,101441.03
2019-03-27T04:59:12.321Z,101441.03
2019-03-27T05:01:41.786Z,101430.79
2019-03-27T05:04:09.993Z,101436.67
2019-03-27T05:06:37.853Z,101435.16
2019-03-27T05:09:05.289Z,101431.39
2019-03-27T05:11:32.832Z,101431.39
2019-03-27T05:14:00.362Z,101444.68
2019-03-27T05:16:28.240Z,101454.13
2019-03-27T05:18:58.753Z,101456.03
2019-03-27T05:21:26.364Z,101456.03
2019-03-27T05:23:54.145Z,101469.23
2019-03-27T05:26:21.647Z,101469.23
2019-03-27T05:28:49.166Z,101479.47
2019-03-27T05:31:16.959Z,101479.47
2019-03-27T05:33:44.551Z,101481.03
2019-03-27T05:36:12.165Z,101483.63
2019-03-27T05:38:39.960Z,101485.26
2019-03-27T05:41:07.504Z,101491.30
2019-03-27T05:43:35.079Z,101491.30
2019-03-27T05:46:02.851Z,101492.93
2019-03-27T05:48:32.867Z,101491.61
2019-03-27T05:51:00.382Z,101486.72
2019-03-27T05:53:28.252Z,101486.72
2019-03-27T05:55:55.790Z,101478.80
2019-03-27T05:58:23.398Z,101476.99
2019-03-27T06:00:51.539Z,101483.11
2019-03-27T06:03:22.813Z,101486.11
2019-03-27T06:05:50.346Z,101486.11
2019-03-27T06:08:18.065Z,101489.83
2019-03-27T06:10:45.659Z,101489.83
2019-03-27T06:13:13.522Z,101496.79
2019-03-27T06:15:41.377Z,101499.83
2019-03-27T06:18:13.630Z,101506.09
2019-03-27T06:20:42.205Z,101506.09
2019-03-27T06:23:12.933Z,101506.05
2019-03-27T06:25:40.455Z,101503.35
2019-03-27T06:28:10.811Z,101510.68
2019-03-27T06:30:39.718Z,101510.68
2019-03-27T06:33:07.347Z,101513.83
2019-03-27T06:35:35.013Z,101513.83
2019-03-27T06:38:06.856Z,101521.84
2019-03-27T06:40:35.333Z,101516.45
2019-03-27T06:43:02.893Z,101519.01
2019-03-27T06:45:30.731Z,101526.87
2019-03-27T06:47:58.266Z,101522.05
2019-03-27T06:50:26.239Z,101524.22
2019-03-27T06:52:56.691Z,101524.22
2019-03-27T06:55:24.297Z,101529.47
2019-03-27T06:57:54.163Z,101529.47
2019-03-27T07:00:22.045Z,101525.40
2019-03-27T07:02:49.650Z,101525.13
2019-03-27T07:05:21.618Z,101526.57
2019-03-27T07:07:55.398Z,101530.26
2019-03-27T07:10:22.999Z,101526.02
2019-03-27T07:12:50.514Z,101521.67
2019-03-27T07:15:20.034Z,101519.66
2019-03-27T07:17:47.671Z,101515.20
2019-03-27T07:20:31.049Z,101520.98
2019-03-27T07:22:46.626Z,101524.91
2019-03-27T07:25:14.227Z,101526.88
2019-03-27T07:27:41.830Z,101526.88
2019-03-27T07:30:09.791Z,101522.76
2019-03-27T07:32:39.338Z,101522.76
2019-03-27T07:35:14.623Z,101529.63
2019-03-27T07:37:44.168Z,101529.63
2019-03-27T07:40:11.749Z,101534.65
2019-03-27T07:42:40.840Z,101534.65
2019-03-27T07:45:12.488Z,101536.44
2019-03-27T07:47:42.816Z,101540.71
2019-03-27T07:50:10.354Z,101540.71
2019-03-27T07:52:38.269Z,101545.66
2019-03-27T07:55:26.021Z,101545.66
2019-03-27T07:57:53.878Z,101540.59
2019-03-27T08:00:24.237Z,101540.59
2019-03-27T08:02:51.719Z,101539.17
2019-03-27T08:05:19.689Z,101542.73
2019-03-27T08:07:47.241Z,101542.22
2019-03-27T08:10:16.873Z,101542.22
2019-03-27T08:12:44.722Z,101547.41
2019-03-27T08:15:12.214Z,101548.58
2019-03-27T08:17:39.788Z,101549.00
2019-03-27T08:20:10.567Z,101549.16
2019-03-27T08:22:41.151Z,101548.51
2019-03-27T08:25:08.686Z,101548.84
2019-03-27T08:27:36.497Z,101550.91
2019-03-27T08:30:04.285Z,101549.86
2019-03-27T08:32:37.433Z,101549.86
2019-03-27T08:35:04.461Z,101559.83
2019-03-27T08:37:32.370Z,101555.27
2019-03-27T08:40:05.861Z,101555.58
2019-03-27T08:42:30.895Z,101558.38
2019-03-27T08:44:58.431Z,101564.66
2019-03-27T08:47:28.999Z,101567.23
2019-03-27T08:49:56.528Z,101567.23
2019-03-27T08:52:25.220Z,101570.14
2019-03-27T08:54:53.068Z,101566.91
2019-03-27T08:57:20.944Z,101566.91
2019-03-27T08:59:50.956Z,101577.20
2019-03-27T09:02:21.538Z,101571.31
2019-03-27T09:04:49.530Z,101569.06
2019-03-27T09:07:19.751Z,101563.22
2019-03-27T09:09:46.600Z,101561.70
2019-03-27T09:12:14.160Z,101554.66
2019-03-27T09:14:45.215Z,101554.66
2019-03-27T09:17:13.115Z,101556.45
2019-03-27T09:19:40.706Z,101552.39
2019-03-27T09:22:08.263Z,101549.60
2019-03-27T09:24:43.388Z,101549.60
2019-03-27T09:27:11.173Z,101550.88
2019-03-27T09:29:41.722Z,101550.88
2019-03-27T09:32:09.580Z,101552.17
2019-03-27T09:34:38.429Z,101551.39
2019-03-27T09:37:06.020Z,101551.39
2019-03-27T09:39:41.603Z,101555.52
2019-03-27T09:42:09.194Z,101555.52
2019-03-27T09:44:54.873Z,101561.80
2019-03-27T09:47:22.762Z,101564.09
2019-03-27T09:49:50.312Z,101563.70
2019-03-27T09:52:19.021Z,101562.13
2019-03-27T09:54:46.826Z,101562.13
2019-03-27T09:57:14.374Z,101564.59
2019-03-27T09:59:42.923Z,101564.59
2019-03-27T10:02:11.782Z,101552.99
2019-03-27T10:04:39.284Z,101551.02
2019-03-27T10:07:08.108Z,101551.02
2019-03-27T10:09:35.874Z,101553.52
2019-03-27T10:14:53.392Z,101559.55
2019-03-27T10:17:24.313Z,101558.16
2019-03-27T10:20:03.178Z,101557.28
2019-03-27T10:22:23.705Z,101565.43
2019-03-27T10:24:55.750Z,101565.43
2019-03-27T10:27:24.540Z,101561.40
2019-03-27T10:29:52.380Z,101551.23
2019-03-27T10:32:20.310Z,101545.42
2019-03-27T10:34:47.845Z,101549.44
2019-03-27T10:37:15.695Z,101549.44
2019-03-27T10:39:43.303Z,101543.42
2019-03-27T10:42:11.305Z,101545.22
2019-03-27T10:44:40.475Z,101537.58
2019-03-27T10:47:10.958Z,101537.58
2019-03-27T10:52:15.631Z,101542.96
2019-03-27T10:54:47.364Z,101535.76
2019-03-27T10:57:17.446Z,101534.77
2019-03-27T10:59:45.661Z,101546.53
2019-03-27T11:02:13.226Z,101538.42
2019-03-27T11:04:40.839Z,101530.81
2019-03-27T11:07:08.562Z,101544.98
2019-03-27T11:09:36.170Z,101552.53
2019-03-27T11:12:03.668Z,101565.07
2019-03-27T11:14:37.756Z,101569.80
2019-03-27T11:17:00.695Z,101573.22
2019-03-27T11:19:28.291Z,101575.45
2019-03-27T11:22:06.743Z,101575.45
2019-03-27T11:24:34.377Z,101572.42
2019-03-27T11:27:01.940Z,101573.80
2019-03-27T11:29:29.607Z,101567.08
2019-03-27T11:31:57.600Z,101565.13
2019-03-27T11:34:27.277Z,101555.13
2019-03-27T11:36:54.868Z,101548.26
2019-03-27T11:39:24.802Z,101541.23
2019-03-27T11:41:53.946Z,101540.39
2019-03-27T11:44:25.196Z,101540.39
2019-03-27T11:46:53.126Z,101544.53
2019-03-27T11:49:23.952Z,101541.04
2019-03-27T11:51:53.557Z,101544.19
2019-03-27T11:54:22.124Z,101547.73
2019-03-27T11:56:53.768Z,101543.13
2019-03-27T11:59:21.382Z,101537.29
2019-03-27T12:01:48.951Z,101537.29
2019-03-27T12:04:16.813Z,101534.09
2019-03-27T12:06:44.421Z,101538.65
2019-03-27T12:09:16.625Z,101539.18
2019-03-27T12:11:46.776Z,101539.01
2019-03-27T12:14:14.229Z,101539.01
2019-03-27T12:16:41.810Z,101531.50
2019-03-27T12:19:09.593Z,101518.48
2019-03-27T12:21:37.354Z,101516.81
2019-03-27T12:24:07.919Z,101509.06
2019-03-27T12:26:35.799Z,101498.21
2019-03-27T12:29:04.435Z,101511.86
2019-03-27T12:31:31.979Z,101511.86
2019-03-27T12:33:59.864Z,101526.45
2019-03-27T12:36:30.493Z,101526.45
2019-03-27T12:39:01.338Z,101514.22
2019-03-27T12:41:27.571Z,101518.04
2019-03-27T12:43:55.166Z,101510.43
2019-03-27T12:46:26.974Z,101519.45
2019-03-27T12:48:54.719Z,101512.68
2019-03-27T12:51:22.223Z,101512.68
2019-03-27T12:53:51.049Z,101511.20
2019-03-27T12:56:19.683Z,101510.58
2019-03-27T12:58:47.238Z,101509.72
2019-03-27T13:01:18.541Z,101509.72
2019-03-27T13:03:51.095Z,101509.91
2019-03-27T13:06:18.701Z,101513.39
2019-03-27T13:08:50.442Z,101522.53
2019-03-27T13:11:20.300Z,101522.53
2019-03-27T13:13:51.541Z,101522.42
2019-03-27T13:16:25.886Z,101522.03
2019-03-27T13:18:53.729Z,101522.33
2019-03-27T13:21:26.659Z,101522.33
2019-03-27T13:23:51.385Z,101521.67
2019-03-27T13:26:23.764Z,101517.76
2019-03-27T13:28:51.291Z,101519.89
2019-03-27T13:31:21.880Z,101515.00
2019-03-27T13:33:50.495Z,101521.00
2019-03-27T13:36:18.224Z,101516.09
2019-03-27T13:38:45.821Z,101516.09
2019-03-27T13:41:16.187Z,101513.12
2019-03-27T13:43:52.477Z,101516.20
2019-03-27T13:46:20.307Z,101516.20
2019-03-27T13:48:47.896Z,101517.32
2019-03-27T13:51:15.544Z,101523.95
2019-03-27T13:53:45.590Z,101527.81
2019-03-27T13:56:13.134Z,101520.38
2019-03-27T13:58:41.500Z,101520.38
2019-03-27T14:01:11.448Z,101519.24
2019-03-27T14:03:42.448Z,101519.56
2019-03-27T14:06:10.341Z,101519.56
2019-03-27T14:08:41.928Z,101513.22
2019-03-27T14:11:09.654Z,101517.80
2019-03-27T14:13:37.513Z,101526.53
2019-03-27T14:16:13.157Z,101517.19
2019-03-27T14:18:42.274Z,101519.16
2019-03-27T14:21:11.846Z,101524.35
2019-03-27T14:23:39.762Z,101521.27
2019-03-27T14:26:10.478Z,101521.27
2019-03-27T14:28:38.088Z,101513.27
2019-03-27T14:31:09.582Z,101506.08
2019-03-27T14:33:37.456Z,101504.09
2019-03-27T14:36:06.093Z,101509.86
2019-03-27T14:38:39.597Z,101509.86
2019-03-27T14:41:05.980Z,101503.86
2019-03-27T14:43:33.523Z,101508.91
2019-03-27T14:46:06.965Z,101509.00
2019-03-27T14:48:41.155Z,101507.60
2019-03-27T14:51:11.086Z,101504.87
2019-03-27T14:53:42.108Z,101506.04
2019-03-27T14:56:13.032Z,101505.13
2019-03-27T14:58:44.562Z,101503.66
2019-03-27T15:01:17.166Z,101504.78
2019-03-27T15:03:46.951Z,101513.84
2019-03-27T15:06:21.709Z,101513.84
2019-03-27T15:08:51.475Z,101514.99
2019-03-27T15:11:29.412Z,101517.20
2019-03-27T15:13:57.227Z,101524.57
2019-03-27T15:16:24.782Z,101517.28
2019-03-27T15:18:52.833Z,101522.56
2019-03-27T15:21:22.850Z,101520.15
2019-03-27T15:23:50.366Z,101520.15
2019-03-27T15:26:22.024Z,101521.42
2019-03-27T15:28:52.768Z,101525.70
2019-03-27T15:31:21.026Z,101530.12
2019-03-27T15:33:52.077Z,101524.44
2019-03-27T15:36:23.388Z,101525.99
2019-03-27T15:38:52.430Z,101527.64
2019-03-27T15:41:20.914Z,101526.14
2019-03-27T15:43:53.193Z,101528.61
2019-03-27T15:46:20.798Z,101530.31
2019-03-27T15:48:52.804Z,101525.19
2019-03-27T15:51:20.843Z,101523.91
2019-03-27T15:53:48.507Z,101523.91
2019-03-27T15:56:16.122Z,101522.44
2019-03-27T15:58:48.220Z,101524.18
2019-03-27T16:01:15.818Z,101520.28
2019-03-27T16:03:43.649Z,101521.53
2019-03-27T16:06:14.544Z,101520.23
2019-03-27T16:08:47.231Z,101514.30
2019-03-27T16:11:14.785Z,101514.30
2019-03-27T16:13:58.696Z,101519.34
2019-03-27T16:16:26.180Z,101518.97
2019-03-27T16:18:56.170Z,101514.53
2019-03-27T16:21:24.918Z,101516.39
2019-03-27T16:24:05.498Z,101517.32
2019-03-27T16:26:22.011Z,101508.03
2019-03-27T16:28:51.841Z,101516.09
2019-03-27T16:31:20.726Z,101516.09
2019-03-27T16:33:53.103Z,101516.91
2019-03-27T16:36:20.353Z,101513.81
2019-03-27T16:38:51.136Z,101515.58
2019-03-27T16:41:23.081Z,101519.28
2019-03-27T16:43:53.127Z,101521.81
2019-03-27T16:46:20.679Z,101521.81
2019-03-27T16:48:50.624Z,101524.68
2019-03-27T16:51:19.830Z,101522.87
2019-03-27T16:53:49.246Z,101522.87
2019-03-27T16:56:19.789Z,101528.34
2019-03-27T16:58:47.712Z,101525.75
2019-03-27T17:01:17.013Z,101530.23
2019-03-27T17:03:47.941Z,101541.87
2019-03-27T17:06:15.521Z,101539.59
2019-03-27T17:08:43.068Z,101546.64
2019-03-27T17:11:11.059Z,101546.64
2019-03-27T17:13:38.577Z,101548.83
2019-03-27T17:16:09.197Z,101540.89
2019-03-27T17:18:37.071Z,101545.75
2019-03-27T17:21:04.986Z,101544.94
2019-03-27T17:23:32.782Z,101545.19
2019-03-27T17:26:06.416Z,101545.19
2019-03-27T17:28:44.225Z,101560.42
2019-03-27T17:31:12.985Z,101555.36
2019-03-27T17:33:43.287Z,101555.36
2019-03-27T17:36:11.195Z,101558.67
2019-03-27T17:38:42.048Z,101563.41
2019-03-27T17:41:11.692Z,101557.85
2019-03-27T17:43:40.949Z,101556.10
2019-03-27T17:46:13.851Z,101556.63
2019-03-27T17:48:48.535Z,101557.55
2019-03-27T17:51:18.208Z,101571.12
2019-03-27T17:53:46.061Z,101571.12
2019-03-27T17:56:13.577Z,101568.94
2019-03-27T17:58:44.268Z,101568.94
2019-03-27T18:01:12.088Z,101563.55
2019-03-27T18:03:40.083Z,101571.88
2019-03-27T18:06:07.611Z,101571.36
2019-03-27T18:08:38.582Z,101570.35
2019-03-27T18:11:08.138Z,101580.77
2019-03-27T18:13:35.397Z,101580.64
2019-03-27T18:16:04.322Z,101580.64
2019-03-27T18:18:32.189Z,101581.00
2019-03-27T18:20:59.819Z,101573.57
2019-03-27T18:23:27.672Z,101573.57
2019-03-27T18:25:55.180Z,101579.06
2019-03-27T18:28:24.814Z,101582.98
2019-03-27T18:30:57.212Z,101576.71
2019-03-27T18:33:27.233Z,101576.71
2019-03-27T18:36:01.242Z,101581.70
2019-03-27T18:38:28.400Z,101585.45
2019-03-27T18:40:55.957Z,101585.45
2019-03-27T18:43:23.493Z,101587.25
2019-03-27T18:45:52.695Z,101583.95
2019-03-27T18:48:25.107Z,101583.95
2019-03-27T18:50:55.234Z,101595.86
2019-03-27T18:53:25.744Z,101595.86
2019-03-27T18:55:56.143Z,101599.59
2019-03-27T18:58:26.195Z,101602.81
2019-03-27T19:00:56.093Z,101599.27
2019-03-27T19:03:23.619Z,101605.92
2019-03-27T19:05:52.282Z,101610.30
2019-03-27T19:08:19.993Z,101607.13
2019-03-27T19:10:50.568Z,101613.28
2019-03-27T19:13:22.312Z,101612.96
2019-03-27T19:15:55.119Z,101619.00
2019-03-27T19:18:22.724Z,101619.00
2019-03-27T19:20:51.426Z,101616.02
2019-03-27T19:23:21.960Z,101624.00
2019-03-27T19:25:49.570Z,101624.00
2019-03-27T19:28:25.121Z,101625.00
2019-03-27T19:30:58.001Z,101621.56
2019-03-27T19:33:25.478Z,101621.56
2019-03-27T19:35:55.813Z,101628.21
2019-03-27T19:38:23.559Z,101627.95
2019-03-27T19:40:51.089Z,101627.95
2019-03-27T19:43:21.128Z,101625.45
2019-03-27T19:46:04.978Z,101630.45
2019-03-27T19:48:33.331Z,101624.48
2019-03-27T19:51:01.149Z,101638.32
2019-03-27T19:53:30.556Z,101638.32
2019-03-27T19:56:00.057Z,101629.56
2019-03-27T19:58:27.828Z,101628.30
2019-03-27T20:00:55.427Z,101629.63
2019-03-27T20:03:22.894Z,101624.47
2019-03-27T20:05:51.824Z,101617.89
2019-03-27T20:08:19.321Z,101620.16
2019-03-27T20:10:48.944Z,101622.33
2019-03-27T20:13:19.192Z,101623.20
2019-03-27T20:15:48.477Z,101623.20
2019-03-27T20:18:30.441Z,101629.39
2019-03-27T20:20:58.280Z,101625.41
2019-03-27T20:23:25.831Z,101625.41
2019-03-27T20:25:53.390Z,101627.13
2019-03-27T20:28:21.866Z,101627.45
2019-03-27T20:30:49.440Z,101632.61
2019-03-27T20:33:19.808Z,101638.25
2019-03-27T20:35:47.649Z,101628.79
2019-03-27T20:39:17.432Z,101624.73
2019-03-27T20:40:50.299Z,101633.98
2019-03-27T20:43:21.413Z,101633.98
2019-03-27T20:45:49.947Z,101635.77
2019-03-27T20:48:17.506Z,101637.88
2019-03-27T20:50:45.364Z,101642.58
2019-03-27T20:56:07.393Z,101644.63
2019-03-27T20:58:35.138Z,101639.63
2019-03-27T21:01:08.823Z,101646.73
2019-03-27T21:03:39.674Z,101646.73
2019-03-27T21:06:07.289Z,101645.82
2019-03-27T21:08:41.146Z,101642.22
2019-03-27T21:11:11.686Z,101639.08
2019-03-27T21:13:41.264Z,101635.96
2019-03-27T21:18:50.092Z,101631.68
2019-03-27T21:21:19.435Z,101631.52
2019-03-27T21:24:05.215Z,101631.52
2019-03-27T21:26:37.479Z,101635.77
2019-03-27T21:29:05.056Z,101635.77
2019-03-27T21:31:32.587Z,101638.81
2019-03-27T21:34:03.165Z,101635.77
2019-03-27T21:36:39.234Z,101635.77
2019-03-27T21:39:09.297Z,101639.43
2019-03-27T21:41:46.338Z,101639.43
2019-03-27T21:44:27.645Z,101638.95
2019-03-27T21:46:51.415Z,101636.84
2019-03-27T21:49:20.093Z,101638.72
2019-03-27T21:51:47.689Z,101638.72
2019-03-27T21:54:15.523Z,101634.80
2019-03-27T21:56:43.099Z,101647.70
2019-03-27T21:59:13.208Z,101650.91
2019-03-27T22:01:45.431Z,101650.91
2019-03-27T22:04:13.292Z,101650.43
2019-03-27T22:06:40.855Z,101656.14
2019-03-27T22:09:08.688Z,101650.81
2019-03-27T22:11:36.272Z,101656.52
2019-03-27T22:14:03.729Z,101656.52
2019-03-27T22:16:34.133Z,101652.96
2019-03-27T22:19:06.164Z,101654.29
2019-03-27T22:21:35.479Z,101652.02
2019-03-27T22:24:05.819Z,101656.79
2019-03-27T22:26:37.543Z,101655.30
2019-03-27T22:29:05.374Z,101646.92
2019-03-27T22:31:32.966Z,101650.40
2019-03-27T22:34:03.132Z,101650.40
2019-03-27T22:36:33.908Z,101658.38
2019-03-27T22:39:03.257Z,101658.77
2019-03-27T22:41:30.930Z,101662.76
2019-03-27T22:43:58.759Z,101664.48
2019-03-27T22:46:26.366Z,101667.07
2019-03-27T22:48:53.932Z,101670.58
2019-03-27T22:51:23.808Z,101671.91
2019-03-27T22:53:52.031Z,101668.41
2019-03-27T22:56:19.544Z,101665.74
2019-03-27T22:58:47.415Z,101662.37
2019-03-27T23:01:15.158Z,101667.20
2019-03-27T23:03:42.795Z,101667.20
2019-03-27T23:06:10.611Z,101667.27
2019-03-27T23:08:38.164Z,101669.70
2019-03-27T23:11:07.508Z,101669.70
2019-03-27T23:13:34.962Z,101671.87
2019-03-27T23:16:02.850Z,101672.58
2019-03-27T23:18:30.399Z,101672.58
2019-03-27T23:21:00.130Z,101676.96
2019-03-27T23:23:28.257Z,101681.34
2019-03-27T23:26:02.988Z,101676.02
2019-03-27T23:28:26.224Z,101676.02
2019-03-27T23:30:56.792Z,101678.23
2019-03-27T23:33:24.323Z,101673.36
2019-03-27T23:35:51.836Z,101677.73
2019-03-27T23:38:19.587Z,101671.97
2019-03-27T23:40:47.167Z,101671.97
2019-03-27T23:43:17.171Z,101678.45
2019-03-27T23:45:44.699Z,101669.63
2019-03-27T23:48:12.594Z,101669.70
2019-03-27T23:50:40.240Z,101669.70
2019-03-27T23:53:07.750Z,101674.30
2019-03-27T23:55:35.656Z,101668.72
2019-03-27T23:58:05.085Z,101676.14
